ADDS METAR Data INFO
IDs: Format: Raw Decoded Include TAF

Data at: 0718 UTC 24 Jun 2018

K6I2 240650Z AUTO 00000KT 8SM CLR 22/22 A2988 RMK AO2
K6I2 240630Z AUTO 00000KT 9SM FEW090 22/22 A2987 RMK AO2
K6I2 240610Z AUTO 00000KT 10SM SCT100 22/22 A2988 RMK AO2
K6I2 240550Z AUTO 16006KT 9SM FEW100 22/22 A2987 RMK AO2
K6I2 240530Z AUTO 18003KT 7SM FEW002 FEW010 SCT020 22/22 A2988 RMK AO2
K6I2 240510Z AUTO 17004KT 1 1/2SM -RA SCT010 BKN019 OVC025 23/22 A2989 RMK AO2
K6I2 240450Z AUTO 15003KT 10SM BKN027 23/21 A2989 RMK AO2
K6I2 240430Z AUTO 16006KT 10SM FEW023 23/21 A2989 RMK AO2
K6I2 240410Z AUTO 00000KT 10SM CLR 23/20 A2989 RMK AO2
K6I2 240350Z AUTO 00000KT 10SM FEW029 23/20 A2988 RMK AO2
K6I2 240330Z AUTO 19003KT 10SM SCT031 23/20 A2988 RMK AO2
K6I2 240310Z AUTO 00000KT 10SM FEW031 23/20 A2988 RMK AO2
K6I2 240250Z AUTO 00000KT 10SM CLR 23/20 A2987 RMK AO2
K6I2 240230Z AUTO 00000KT 10SM CLR 24/20 A2986 RMK AO2
K6I2 240210Z AUTO 00000KT 10SM CLR 24/20 A2985 RMK AO2
K6I2 240150Z AUTO 00000KT 10SM CLR 24/20 A2985 RMK AO2
K6I2 240130Z AUTO 00000KT 10SM CLR 24/20 A2984 RMK AO2
K6I2 240110Z AUTO 00000KT 10SM CLR 24/20 A2984 RMK AO2
K6I2 240050Z AUTO 00000KT 10SM CLR 25/20 A2983 RMK AO2
K6I2 240030Z AUTO 00000KT 10SM CLR 25/20 A2984 RMK AO2
K6I2 240010Z AUTO 25004KT 10SM CLR 26/20 A2983 RMK AO2
K6I2 232350Z AUTO 25006KT 9SM CLR 27/20 A2983 RMK AO2
K6I2 232330Z AUTO 25007KT 10SM CLR 27/20 A2983 RMK AO2
K6I2 232310Z AUTO 26006KT 10SM CLR 27/20 A2982 RMK AO2
K6I2 232250Z AUTO 26006KT 10SM CLR 28/20 A2983 RMK AO2
K6I2 232230Z AUTO 25005KT 10SM CLR 27/20 A2982 RMK AO2
K6I2 232210Z AUTO 24007KT 10SM FEW037 SCT065 SCT095 27/19 A2982 RMK AO2
K6I2 232150Z AUTO 25006KT 10SM FEW037 BKN065 27/19 A2983 RMK AO2
K6I2 232130Z AUTO 24008KT 10SM SCT065 28/19 A2983 RMK AO2
K6I2 232110Z AUTO 23006KT 10SM FEW037 BKN065 27/19 A2983 RMK AO2
K6I2 232050Z AUTO 21005KT 10SM BKN037 BKN050 BKN070 27/20 A2983 RMK AO2
K6I2 232030Z AUTO 22007G15KT 10SM FEW037 SCT048 28/19 A2983 RMK AO2
K6I2 232010Z AUTO 21008KT 10SM SCT039 BKN050 BKN065 28/19 A2983 RMK AO2
K6I2 231950Z AUTO 22006KT 10SM FEW036 SCT044 BKN065 28/19 A2983 RMK AO2
K6I2 231930Z AUTO 22007KT 10SM FEW037 FEW045 28/18 A2983 RMK AO2
K6I2 231910Z AUTO 28007KT 10SM FEW036 SCT045 BKN100 28/19 A2983 RMK AO2
K6I2 231850Z AUTO 24007KT 10SM SCT036 SCT044 SCT050 28/18 A2983 RMK AO2
K6I2 231830Z AUTO 21008KT 10SM FEW034 28/19 A2984 RMK AO2
K6I2 231810Z AUTO 25011G15KT 10SM FEW060 27/18 A2985 RMK AO2
K6I2 231750Z AUTO 23008KT 10SM FEW030 FEW034 FEW041 27/19 A2985 RMK AO2
K6I2 231730Z AUTO 21007KT 10SM CLR 27/19 A2986 RMK AO2
K6I2 231710Z AUTO 23007KT 10SM FEW050 27/19 A2986 RMK AO2
K6I2 231650Z AUTO 23007G15KT 10SM FEW025 FEW047 FEW055 26/18 A2986 RMK AO2
K6I2 231630Z AUTO 21009G14KT 10SM FEW070 25/19 A2986 RMK AO2
K6I2 231610Z AUTO 20009KT 10SM FEW043 BKN070 BKN110 25/19 A2987 RMK AO2
K6I2 231550Z AUTO 20009KT 10SM FEW025 BKN041 BKN060 25/19 A2987 RMK AO2
K6I2 231530Z AUTO 21009KT 10SM FEW021 SCT028 BKN043 24/19 A2987 RMK AO2
K6I2 231510Z AUTO 22005KT 10SM BKN048 OVC050 23/19 A2987 RMK AO2
K6I2 231450Z AUTO 20006KT 10SM SCT016 OVC048 23/19 A2986 RMK AO2
K6I2 231430Z AUTO 21008KT 10SM SCT014 BKN020 BKN048 23/19 A2985 RMK AO2
K6I2 231410Z AUTO 21007KT 10SM SCT012 23/19 A2985 RMK AO2
K6I2 231350Z AUTO 21006KT 10SM BKN010 BKN050 BKN080 22/19 A2985 RMK AO2
K6I2 231330Z AUTO 22006KT 10SM SCT010 SCT038 BKN050 21/19 A2985 RMK AO2
K6I2 231310Z AUTO 22006KT 10SM FEW008 BKN075 20/19 A2986 RMK AO2
K6I2 231250Z AUTO 21006KT 10SM SCT046 OVC075 20/19 A2985 RMK AO2
K6I2 231230Z AUTO 22005KT 10SM SCT048 OVC065 20/19 A2986 RMK AO2
K6I2 231210Z AUTO 21004KT 10SM FEW050 OVC065 20/19 A2985 RMK AO2
K6I2 231150Z AUTO 22005KT 10SM SCT055 BKN065 BKN080 20/19 A2985 RMK AO2
K6I2 231130Z AUTO 23004KT 10SM SCT060 BKN080 BKN085 19/19 A2984 RMK AO2
K6I2 231110Z AUTO 21005KT 10SM BKN080 19/18 A2983 RMK AO2
K6I2 231050Z AUTO 22005KT 10SM BKN090 19/18 A2983 RMK AO2
K6I2 231030Z AUTO 21005KT 10SM BKN090 19/18 A2982 RMK AO2
K6I2 231010Z AUTO 20005KT 10SM FEW090 19/18 A2982 RMK AO2
K6I2 230950Z AUTO 20006KT 10SM SCT090 BKN100 19/18 A2981 RMK AO2
K6I2 230930Z AUTO 20006KT 10SM FEW080 19/18 A2980 RMK AO2
K6I2 230910Z AUTO 20006KT 10SM SCT021 19/18 A2980 RMK AO2
K6I2 230850Z AUTO 20005KT 10SM BKN025 19/18 A2980 RMK AO2
K6I2 230830Z AUTO 20005KT 10SM OVC025 19/18 A2979 RMK AO2
K6I2 230810Z AUTO 19003KT 10SM BKN025 19/18 A2978 RMK AO2
K6I2 230750Z AUTO 18004KT 10SM CLR 19/18 A2978 RMK AO2
K6I2 230730Z AUTO 19004KT 10SM FEW032 19/18 A2977 RMK AO2
K6I2 230710Z AUTO 18005KT 10SM CLR 19/18 A2977 RMK AO2
K6I2 230650Z AUTO 18004KT 10SM CLR 19/18 A2977 RMK AO2
K6I2 230630Z AUTO 17005KT 10SM CLR 19/18 A2978 RMK AO2
K6I2 230610Z AUTO 17008KT 10SM CLR 19/17 A2978 RMK AO2
K6I2 230550Z AUTO 19005KT 10SM CLR 19/17 A2977 RMK AO2
K6I2 230530Z AUTO 16004KT 10SM FEW120 19/17 A2977 RMK AO2
K6I2 230510Z AUTO 00000KT 10SM FEW120 19/17 A2976 RMK AO2
K6I2 230450Z AUTO 22005KT 10SM CLR 20/17 A2976 RMK AO2
K6I2 230430Z AUTO 24007KT 10SM CLR 20/17 A2976 RMK AO2
K6I2 230410Z AUTO 24005KT 10SM CLR 20/18 A2976 RMK AO2
K6I2 230350Z AUTO 22005KT 10SM CLR 20/18 A2976 RMK AO2
K6I2 230330Z AUTO 00000KT 10SM CLR 20/18 A2976 RMK AO2
K6I2 230310Z AUTO 20005KT 10SM CLR 20/18 A2976 RMK AO2
K6I2 230250Z AUTO 22005KT 10SM CLR 20/18 A2976 RMK AO2
K6I2 230230Z AUTO 20004KT 10SM CLR 20/18 A2975 RMK AO2
K6I2 230210Z AUTO 21004KT 10SM CLR 20/18 A2975 RMK AO2
K6I2 230150Z AUTO 23004KT 10SM CLR 21/18 A2974 RMK AO2
K6I2 230130Z AUTO 22004KT 10SM CLR 21/18 A2974 RMK AO2
K6I2 230110Z AUTO 23004KT 10SM FEW080 22/18 A2973 RMK AO2
K6I2 230050Z AUTO 22004KT 10SM BKN080 22/18 A2973 RMK AO2
K6I2 230030Z AUTO 22005KT 10SM BKN080 22/18 A2973 RMK AO2
K6I2 230010Z AUTO 23005KT 10SM FEW031 22/18 A2972 RMK AO2
K6I2 222350Z AUTO 21006KT 10SM FEW026 22/20 A2972 RMK AO2
K6I2 222330Z AUTO 17006KT 10SM SCT023 BKN029 22/20 A2972 RMK AO2
K6I2 222310Z AUTO 16005KT 10SM FEW025 SCT031 BKN065 22/20 A2972 RMK AO2
K6I2 222250Z AUTO 00000KT 10SM FEW032 SCT038 BKN075 23/20 A2971 RMK AO2
K6I2 222230Z AUTO 00000KT 10SM SCT075 22/20 A2971 RMK AO2
K6I2 222210Z AUTO 16007KT 10SM FEW044 SCT090 22/20 A2971 RMK AO2
K6I2 222150Z AUTO 21004KT 10SM FEW075 SCT100 22/20 A2971 RMK AO2
K6I2 222130Z AUTO 21004KT 10SM FEW026 SCT045 BKN090 20/20 A2971 RMK AO2
K6I2 222110Z AUTO 16010KT 1 3/4SM RA SCT001 BKN014 OVC044 19/19 A2973 RMK AO2
K6I2 222050Z AUTO 22007G15KT 1/2SM RA BKN001 OVC012 19/19 A2974 RMK AO2
K6I2 222025Z AUTO 26010G17KT 3SM -RA FEW008 SCT030 BKN041 19/18 A2973 RMK AO2
K6I2 222010Z AUTO 26013G24KT 8SM FEW024 SCT043 BKN049 20/17 A2973 RMK AO2
K6I2 221950Z AUTO 22007KT 10SM FEW039 SCT048 SCT100 24/19 A2971 RMK AO2
K6I2 221930Z AUTO 21009KT 9SM FEW039 SCT100 25/18 A2970 RMK AO2